createdAt,value
2017-09-03T00:00:26.877Z,10.90
2017-09-03T00:02:54.442Z,10.90
2017-09-03T00:05:22.021Z,10.90
2017-09-03T00:07:49.603Z,10.90
2017-09-03T00:10:17.927Z,10.80
2017-09-03T00:12:45.510Z,10.80
2017-09-03T00:15:13.089Z,10.80
2017-09-03T00:17:40.653Z,10.70
2017-09-03T00:20:09.001Z,10.60
2017-09-03T00:22:37.397Z,10.60
2017-09-03T00:25:04.986Z,10.50
2017-09-03T00:27:32.576Z,10.60
2017-09-03T00:30:00.213Z,10.60
2017-09-03T00:32:27.776Z,10.60
2017-09-03T00:34:55.337Z,10.70
2017-09-03T00:37:22.939Z,10.60
2017-09-03T00:39:50.538Z,10.60
2017-09-03T00:42:18.170Z,10.60
2017-09-03T00:44:45.799Z,10.60
2017-09-03T00:47:13.415Z,10.50
2017-09-03T00:49:40.982Z,10.50
2017-09-03T00:52:08.554Z,10.40
2017-09-03T00:54:36.914Z,10.40
2017-09-03T00:57:04.499Z,10.40
2017-09-03T00:59:32.845Z,10.30
2017-09-03T01:02:00.511Z,10.30
2017-09-03T01:04:28.082Z,10.30
2017-09-03T01:06:55.641Z,10.30
2017-09-03T01:09:23.214Z,10.30
2017-09-03T01:11:50.782Z,10.30
2017-09-03T01:14:18.371Z,10.30
2017-09-03T01:16:46.053Z,10.30
2017-09-03T01:19:13.634Z,10.30
2017-09-03T01:21:41.201Z,10.30
2017-09-03T01:24:08.793Z,10.20
2017-09-03T01:26:36.375Z,10.30
2017-09-03T01:29:03.962Z,10.30
2017-09-03T01:31:31.567Z,10.30
2017-09-03T01:33:59.143Z,10.30
2017-09-03T01:36:26.733Z,10.30
2017-09-03T01:38:54.344Z,10.30
2017-09-03T01:41:21.931Z,10.30
2017-09-03T01:43:49.500Z,10.30
2017-09-03T01:46:17.106Z,10.20
2017-09-03T01:48:44.677Z,10.20
2017-09-03T01:51:12.222Z,10.10
2017-09-03T01:53:39.805Z,10.10
2017-09-03T01:56:07.389Z,10.10
2017-09-03T01:58:34.974Z,10.00
2017-09-03T02:01:02.535Z,10.00
2017-09-03T02:03:30.106Z,9.90
2017-09-03T02:05:57.702Z,10.00
2017-09-03T02:08:25.319Z,9.90
2017-09-03T02:10:52.923Z,10.00
2017-09-03T02:13:20.457Z,9.90
2017-09-03T02:15:48.085Z,10.00
2017-09-03T02:18:15.661Z,10.00
2017-09-03T02:20:43.246Z,10.10
2017-09-03T02:23:10.802Z,10.10
2017-09-03T02:25:38.413Z,10.10
2017-09-03T02:28:06.001Z,10.10
2017-09-03T02:30:33.597Z,10.10
2017-09-03T02:33:01.193Z,10.20
2017-09-03T02:35:28.765Z,10.10
2017-09-03T02:37:56.394Z,10.10
2017-09-03T02:40:23.993Z,10.10
2017-09-03T02:42:52.343Z,10.10
2017-09-03T02:45:19.966Z,10.10
2017-09-03T02:47:47.546Z,10.00
2017-09-03T02:50:15.078Z,10.10
2017-09-03T02:52:42.679Z,10.00
2017-09-03T02:55:10.266Z,10.00
2017-09-03T02:57:37.892Z,10.00
2017-09-03T03:00:05.478Z,10.00
2017-09-03T03:02:33.045Z,10.00
2017-09-03T03:05:00.662Z,10.00
2017-09-03T03:07:28.265Z,10.00
2017-09-03T03:09:55.878Z,10.00
2017-09-03T03:12:23.502Z,9.90
2017-09-03T03:14:51.091Z,9.90
2017-09-03T03:17:18.664Z,9.90
2017-09-03T03:19:46.238Z,10.00
2017-09-03T03:22:13.818Z,10.00
2017-09-03T03:24:41.397Z,9.90
2017-09-03T03:27:09.867Z,9.90
2017-09-03T03:29:37.470Z,9.90
2017-09-03T03:32:05.055Z,10.00
2017-09-03T03:34:32.661Z,10.00
2017-09-03T03:37:00.235Z,9.90
2017-09-03T03:39:27.803Z,9.90
2017-09-03T03:41:55.418Z,9.90
2017-09-03T03:44:22.986Z,9.80
2017-09-03T03:46:50.564Z,9.90
2017-09-03T03:49:18.152Z,10.00
2017-09-03T03:51:45.731Z,9.90
2017-09-03T03:54:13.310Z,9.90
2017-09-03T03:56:40.866Z,9.80
2017-09-03T03:59:08.507Z,9.70
2017-09-03T04:01:36.075Z,9.80
2017-09-03T04:04:03.663Z,9.80
2017-09-03T04:06:31.221Z,9.70
2017-09-03T04:08:58.790Z,9.70
2017-09-03T04:11:26.382Z,9.80
2017-09-03T04:13:53.962Z,9.80
2017-09-03T04:16:21.529Z,9.70
2017-09-03T04:18:49.098Z,9.60
2017-09-03T04:21:16.702Z,9.70
2017-09-03T04:23:44.289Z,9.60
2017-09-03T04:26:11.864Z,9.70
2017-09-03T04:28:39.431Z,9.70
2017-09-03T04:31:07.070Z,9.60
2017-09-03T04:33:34.704Z,9.60
2017-09-03T04:36:02.259Z,9.70
2017-09-03T04:38:29.837Z,9.60
2017-09-03T04:40:57.430Z,9.60
2017-09-03T04:43:25.016Z,9.60
2017-09-03T04:45:52.606Z,9.60
2017-09-03T04:48:20.223Z,9.60
2017-09-03T04:50:47.779Z,9.60
2017-09-03T04:53:15.396Z,9.60
2017-09-03T04:55:43.013Z,9.50
2017-09-03T04:58:10.597Z,9.60
2017-09-03T05:00:38.201Z,9.60
2017-09-03T05:03:05.767Z,9.60
2017-09-03T05:05:33.358Z,9.70
2017-09-03T05:08:00.973Z,9.70
2017-09-03T05:10:28.648Z,9.80
2017-09-03T05:12:57.005Z,9.80
2017-09-03T05:15:24.591Z,9.80
2017-09-03T05:17:52.186Z,9.70
2017-09-03T05:20:19.777Z,9.90
2017-09-03T05:22:47.362Z,9.90
2017-09-03T05:25:14.951Z,9.90
2017-09-03T05:27:42.534Z,10.00
2017-09-03T05:30:10.151Z,10.00
2017-09-03T05:32:37.756Z,10.10
2017-09-03T05:35:05.381Z,10.20
2017-09-03T05:37:32.986Z,10.20
2017-09-03T05:40:00.561Z,10.30
2017-09-03T05:42:28.237Z,10.40
2017-09-03T05:44:55.818Z,10.40
2017-09-03T05:47:23.421Z,10.50
2017-09-03T05:49:51.021Z,10.60
2017-09-03T05:52:18.624Z,11.20
2017-09-03T05:54:46.237Z,11.80
2017-09-03T05:57:13.826Z,12.60
2017-09-03T05:59:41.389Z,13.20
2017-09-03T06:02:08.986Z,13.90
2017-09-03T06:04:36.610Z,14.50
2017-09-03T06:07:04.161Z,15.10
2017-09-03T06:09:31.745Z,15.70
2017-09-03T06:11:59.320Z,16.40
2017-09-03T06:14:26.897Z,17.00
2017-09-03T06:16:54.475Z,17.60
2017-09-03T06:19:22.046Z,18.20
2017-09-03T06:21:49.621Z,18.70
2017-09-03T06:24:17.184Z,19.20
2017-09-03T06:26:44.792Z,20.10
2017-09-03T06:29:12.402Z,20.90
2017-09-03T06:31:39.992Z,21.80
2017-09-03T06:34:08.342Z,22.10
2017-09-03T06:36:35.901Z,22.10
2017-09-03T06:39:03.480Z,22.00
2017-09-03T06:41:31.810Z,22.60
2017-09-03T06:43:59.406Z,22.50
2017-09-03T06:46:26.976Z,23.00
2017-09-03T06:48:54.545Z,23.60
2017-09-03T06:51:22.905Z,23.70
2017-09-03T06:53:50.474Z,23.60
2017-09-03T06:56:18.102Z,24.00
2017-09-03T06:58:45.666Z,24.70
2017-09-03T07:01:13.292Z,25.00
2017-09-03T07:03:40.880Z,25.00
2017-09-03T07:06:08.463Z,25.10
2017-09-03T07:08:36.026Z,25.60
2017-09-03T07:11:03.605Z,26.40
2017-09-03T07:13:31.210Z,27.20
2017-09-03T07:15:58.774Z,27.50
2017-09-03T07:18:26.405Z,28.00
2017-09-03T07:20:54.005Z,28.30
2017-09-03T07:23:21.598Z,28.40
2017-09-03T07:25:49.165Z,29.00
2017-09-03T07:28:16.734Z,29.00
2017-09-03T07:30:44.327Z,29.00
2017-09-03T07:33:12.004Z,29.20
2017-09-03T07:35:39.601Z,29.60
2017-09-03T07:38:07.200Z,30.20
2017-09-03T07:40:34.774Z,31.10
2017-09-03T07:43:02.358Z,32.10
2017-09-03T07:45:29.946Z,32.60
2017-09-03T07:47:57.559Z,32.70
2017-09-03T07:50:25.134Z,32.90
2017-09-03T07:52:52.733Z,33.10
2017-09-03T07:55:20.298Z,33.20
2017-09-03T07:57:47.926Z,33.40
2017-09-03T08:00:15.510Z,33.40
2017-09-03T08:02:43.122Z,34.20
2017-09-03T08:05:10.687Z,34.00
2017-09-03T08:07:38.278Z,33.80
2017-09-03T08:10:05.885Z,33.90
2017-09-03T08:12:33.453Z,33.80
2017-09-03T08:15:01.007Z,34.00
2017-09-03T08:17:28.698Z,33.90
2017-09-03T08:19:56.463Z,34.20
2017-09-03T08:22:24.167Z,34.40
2017-09-03T08:24:51.758Z,34.80
2017-09-03T08:27:20.098Z,36.00
2017-09-03T08:29:47.679Z,35.90
2017-09-03T08:32:15.234Z,36.30
2017-09-03T08:34:42.818Z,36.20
2017-09-03T08:37:11.151Z,35.30
2017-09-03T08:39:38.746Z,35.20
2017-09-03T08:42:06.316Z,35.10
2017-09-03T08:44:34.880Z,34.70
2017-09-03T08:47:02.489Z,34.80
2017-09-03T08:49:30.095Z,34.90
2017-09-03T08:51:58.667Z,35.20
2017-09-03T08:54:30.487Z,35.60
2017-09-03T08:56:58.099Z,35.90
2017-09-03T08:59:25.717Z,36.00
2017-09-03T09:01:53.313Z,36.10
2017-09-03T09:04:20.889Z,35.80
2017-09-03T09:06:48.463Z,35.70
2017-09-03T09:09:16.045Z,35.60
2017-09-03T09:11:43.625Z,35.80
2017-09-03T09:14:11.229Z,35.80
2017-09-03T09:16:38.812Z,36.00
2017-09-03T09:19:07.177Z,36.40
2017-09-03T09:21:34.778Z,36.40
2017-09-03T09:24:03.113Z,36.40
2017-09-03T09:26:30.722Z,36.40
2017-09-03T09:28:58.305Z,36.40
2017-09-03T09:31:25.902Z,35.90
2017-09-03T09:33:53.494Z,36.10
2017-09-03T09:36:21.056Z,36.60
2017-09-03T09:38:48.650Z,36.30
2017-09-03T09:41:16.321Z,36.20
2017-09-03T09:43:43.886Z,36.50
2017-09-03T09:46:11.462Z,36.60
2017-09-03T09:48:39.031Z,36.10
2017-09-03T09:51:06.609Z,35.50
2017-09-03T09:53:34.170Z,35.00
2017-09-03T09:56:01.852Z,34.60
2017-09-03T09:58:30.276Z,34.90
2017-09-03T10:00:57.882Z,34.90
2017-09-03T10:03:25.456Z,35.00
2017-09-03T10:05:53.047Z,34.80
2017-09-03T10:08:20.609Z,34.70
2017-09-03T10:10:48.198Z,34.70
2017-09-03T10:13:15.775Z,34.70
2017-09-03T10:15:43.339Z,35.40
2017-09-03T10:18:10.899Z,35.10
2017-09-03T10:20:38.562Z,34.40
2017-09-03T10:23:06.119Z,34.20
2017-09-03T10:25:33.702Z,34.20
2017-09-03T10:28:02.040Z,34.70
2017-09-03T10:30:29.630Z,34.60
2017-09-03T10:32:57.203Z,34.20
2017-09-03T10:35:24.794Z,34.00
2017-09-03T10:37:52.370Z,33.70
2017-09-03T10:40:19.945Z,33.80
2017-09-03T10:42:47.531Z,33.30
2017-09-03T10:45:15.121Z,33.30
2017-09-03T10:47:42.858Z,32.70
2017-09-03T10:50:10.418Z,32.10
2017-09-03T10:52:38.853Z,32.30
2017-09-03T10:55:06.450Z,33.00
2017-09-03T10:57:34.037Z,33.00
2017-09-03T11:00:01.591Z,33.10
2017-09-03T11:02:30.480Z,33.00
2017-09-03T11:04:58.124Z,32.80
2017-09-03T11:07:25.746Z,32.70
2017-09-03T11:09:53.413Z,32.70
2017-09-03T11:12:21.046Z,32.50
2017-09-03T11:14:48.664Z,33.10
2017-09-03T11:17:16.222Z,33.60
2017-09-03T11:19:43.781Z,33.50
2017-09-03T11:22:11.381Z,32.40
2017-09-03T11:24:39.754Z,31.30
2017-09-03T11:27:08.226Z,31.30
2017-09-03T11:29:35.808Z,31.50
2017-09-03T11:32:03.432Z,31.40
2017-09-03T11:34:30.974Z,31.30
2017-09-03T11:36:58.547Z,30.80
2017-09-03T11:39:26.117Z,30.60
2017-09-03T11:41:53.743Z,30.50
2017-09-03T11:44:21.318Z,30.30
2017-09-03T11:46:49.072Z,29.60
2017-09-03T11:49:16.707Z,29.00
2017-09-03T11:51:44.268Z,28.90
2017-09-03T11:54:12.056Z,28.60
2017-09-03T11:56:39.617Z,28.10
2017-09-03T11:59:10.301Z,28.40
2017-09-03T12:01:37.878Z,28.60
2017-09-03T12:04:05.505Z,28.60
2017-09-03T12:06:33.090Z,27.90
2017-09-03T12:09:00.754Z,27.20
2017-09-03T12:11:28.451Z,26.60
2017-09-03T12:13:56.022Z,26.20
2017-09-03T12:16:23.604Z,25.60
2017-09-03T12:18:51.190Z,25.40
2017-09-03T12:21:18.750Z,25.50
2017-09-03T12:23:47.349Z,25.50
2017-09-03T12:26:14.947Z,25.10
2017-09-03T12:28:42.567Z,25.00
2017-09-03T12:31:13.540Z,25.00
2017-09-03T12:33:41.146Z,25.40
2017-09-03T12:36:08.715Z,25.50
2017-09-03T12:38:36.290Z,25.90
2017-09-03T12:41:03.870Z,26.00
2017-09-03T12:43:31.423Z,26.10
2017-09-03T12:45:59.781Z,26.40
2017-09-03T12:48:27.346Z,26.40
2017-09-03T12:50:54.953Z,26.30
2017-09-03T12:53:22.528Z,26.00
2017-09-03T12:55:50.094Z,25.90
2017-09-03T12:58:17.674Z,25.70
2017-09-03T13:00:45.243Z,25.60
2017-09-03T13:03:12.808Z,25.70
2017-09-03T13:05:40.381Z,25.80
2017-09-03T13:08:08.026Z,26.40
2017-09-03T13:10:35.623Z,26.90
2017-09-03T13:13:03.190Z,26.70
2017-09-03T13:15:30.774Z,26.20
2017-09-03T13:17:58.349Z,25.90
2017-09-03T13:20:25.911Z,25.90
2017-09-03T13:22:53.478Z,25.90
2017-09-03T13:25:21.047Z,25.70
2017-09-03T13:27:48.630Z,25.30
2017-09-03T13:30:16.312Z,24.90
2017-09-03T13:32:43.894Z,24.70
2017-09-03T13:35:11.429Z,24.90
2017-09-03T13:37:39.005Z,25.50
2017-09-03T13:40:06.578Z,26.00
2017-09-03T13:42:34.179Z,26.20
2017-09-03T13:45:01.834Z,26.40
2017-09-03T13:47:29.430Z,26.20
2017-09-03T13:49:57.013Z,26.10
2017-09-03T13:52:24.590Z,25.90
2017-09-03T13:54:52.170Z,25.90
2017-09-03T13:57:19.744Z,25.80
2017-09-03T13:59:47.506Z,25.60
2017-09-03T14:02:15.090Z,25.30
2017-09-03T14:04:42.676Z,24.90
2017-09-03T14:07:10.239Z,24.70
2017-09-03T14:09:38.582Z,24.60
2017-09-03T14:12:06.179Z,24.60
2017-09-03T14:14:33.740Z,24.60
2017-09-03T14:17:01.311Z,24.50
2017-09-03T14:19:28.865Z,24.30
2017-09-03T14:21:56.472Z,24.10
2017-09-03T14:24:24.030Z,23.90
2017-09-03T14:26:51.653Z,23.80
2017-09-03T14:29:19.306Z,23.80
2017-09-03T14:31:46.894Z,23.90
2017-09-03T14:34:14.463Z,24.10
2017-09-03T14:36:42.051Z,24.20
2017-09-03T14:39:09.606Z,24.40
2017-09-03T14:41:37.194Z,24.40
2017-09-03T14:44:04.794Z,24.20
2017-09-03T14:46:32.386Z,24.20
2017-09-03T14:48:59.993Z,24.10
2017-09-03T14:51:27.606Z,24.00
2017-09-03T14:53:55.193Z,24.00
2017-09-03T14:56:22.879Z,23.80
2017-09-03T14:58:51.210Z,23.60
2017-09-03T15:01:18.806Z,23.50
2017-09-03T15:03:46.371Z,23.40
2017-09-03T15:06:13.958Z,23.40
2017-09-03T15:08:41.526Z,23.40
2017-09-03T15:11:09.119Z,23.40
2017-09-03T15:13:36.725Z,23.40
2017-09-03T15:16:04.339Z,23.50
2017-09-03T15:18:32.026Z,23.60
2017-09-03T15:21:00.597Z,23.50
2017-09-03T15:23:28.170Z,23.40
2017-09-03T15:25:55.806Z,23.50
2017-09-03T15:28:23.414Z,23.50
2017-09-03T15:30:51.009Z,23.50
2017-09-03T15:33:18.609Z,23.50
2017-09-03T15:35:46.487Z,23.40
2017-09-03T15:38:14.117Z,23.40
2017-09-03T15:40:41.700Z,23.30
2017-09-03T15:43:09.298Z,23.10
2017-09-03T15:45:36.875Z,23.00
2017-09-03T15:48:04.517Z,22.90
2017-09-03T15:50:33.073Z,22.80
2017-09-03T15:53:00.663Z,22.80
2017-09-03T15:55:28.288Z,22.80
2017-09-03T15:57:55.924Z,22.80
2017-09-03T16:00:23.537Z,23.00
2017-09-03T16:02:51.104Z,23.10
2017-09-03T16:05:18.680Z,23.10
2017-09-03T16:07:46.258Z,23.20
2017-09-03T16:10:13.853Z,23.20
2017-09-03T16:12:41.436Z,23.10
2017-09-03T16:15:09.085Z,23.00
2017-09-03T16:17:36.698Z,23.10
2017-09-03T16:20:04.368Z,23.20
2017-09-03T16:22:31.926Z,23.20
2017-09-03T16:24:59.543Z,23.20
2017-09-03T16:27:27.119Z,23.20
2017-09-03T16:29:55.022Z,23.00
2017-09-03T16:32:22.640Z,23.00
2017-09-03T16:34:50.255Z,22.70
2017-09-03T16:37:17.823Z,22.50
2017-09-03T16:39:45.408Z,22.40
2017-09-03T16:42:13.005Z,22.40
2017-09-03T16:44:41.330Z,22.10
2017-09-03T16:47:08.939Z,22.10
2017-09-03T16:49:36.497Z,21.90
2017-09-03T16:52:04.077Z,21.70
2017-09-03T16:54:31.657Z,21.60
2017-09-03T16:56:59.234Z,21.50
2017-09-03T16:59:26.810Z,21.40
2017-09-03T17:01:54.402Z,21.20
2017-09-03T17:04:21.942Z,21.10
2017-09-03T17:06:49.527Z,21.00
2017-09-03T17:09:17.102Z,20.80
2017-09-03T17:11:44.721Z,20.60
2017-09-03T17:14:12.282Z,20.40
2017-09-03T17:16:41.667Z,20.20
2017-09-03T17:19:10.991Z,19.90
2017-09-03T17:21:38.622Z,19.80
2017-09-03T17:24:06.191Z,19.80
2017-09-03T17:26:33.760Z,19.60
2017-09-03T17:29:01.433Z,19.50
2017-09-03T17:31:31.511Z,19.40
2017-09-03T17:33:59.139Z,19.40
2017-09-03T17:36:28.314Z,19.30
2017-09-03T17:39:00.489Z,19.20
2017-09-03T17:41:28.074Z,19.20
2017-09-03T17:43:56.298Z,19.00
2017-09-03T17:46:38.785Z,18.90
2017-09-03T17:49:06.353Z,18.70
2017-09-03T17:51:33.926Z,18.50
2017-09-03T17:54:01.599Z,18.40
2017-09-03T17:56:29.929Z,18.20
2017-09-03T17:58:58.296Z,18.10
2017-09-03T18:01:26.642Z,18.00
2017-09-03T18:03:54.310Z,18.00
2017-09-03T18:06:21.895Z,17.90
2017-09-03T18:08:49.454Z,17.80
2017-09-03T18:11:17.057Z,17.70
2017-09-03T18:13:44.653Z,17.50
2017-09-03T18:16:12.228Z,17.40
2017-09-03T18:18:39.792Z,17.30
2017-09-03T18:21:07.376Z,17.30
2017-09-03T18:23:34.959Z,17.20
2017-09-03T18:26:02.523Z,17.20
2017-09-03T18:28:31.482Z,17.10
2017-09-03T18:30:59.570Z,17.00
2017-09-03T18:33:27.133Z,16.80
2017-09-03T18:35:54.707Z,16.90
2017-09-03T18:38:25.805Z,16.70
2017-09-03T18:40:53.970Z,16.60
2017-09-03T18:43:22.447Z,16.50
2017-09-03T18:45:50.017Z,16.50
2017-09-03T18:48:17.594Z,16.40
2017-09-03T18:50:47.725Z,16.40
2017-09-03T18:53:19.812Z,16.30
2017-09-03T18:55:47.845Z,16.30
2017-09-03T18:58:16.150Z,16.30
2017-09-03T19:00:43.771Z,16.30
2017-09-03T19:03:27.141Z,16.10
2017-09-03T19:05:55.698Z,16.10
2017-09-03T19:08:23.291Z,16.10
2017-09-03T19:10:50.878Z,16.00
2017-09-03T19:13:18.450Z,16.00
2017-09-03T19:15:46.051Z,16.00
2017-09-03T19:18:13.610Z,16.00
2017-09-03T19:20:41.218Z,15.90
2017-09-03T19:23:08.851Z,15.90
2017-09-03T19:25:36.431Z,15.90
2017-09-03T19:28:03.983Z,15.80
2017-09-03T19:30:31.566Z,15.90
2017-09-03T19:32:59.224Z,15.80
2017-09-03T19:35:26.846Z,15.80
2017-09-03T19:37:56.646Z,15.70
2017-09-03T19:40:24.230Z,15.70
2017-09-03T19:42:52.542Z,15.60
2017-09-03T19:45:20.220Z,15.50
2017-09-03T19:47:47.848Z,15.60
2017-09-03T19:50:15.399Z,15.60
2017-09-03T19:52:42.986Z,15.60
2017-09-03T19:55:10.607Z,15.60
2017-09-03T19:57:38.236Z,15.60
2017-09-03T20:00:06.085Z,15.60
2017-09-03T20:02:33.738Z,15.40
2017-09-03T20:05:01.614Z,15.40
2017-09-03T20:07:29.204Z,15.50
2017-09-03T20:09:56.782Z,15.50
2017-09-03T20:12:24.378Z,15.50
2017-09-03T20:14:52.004Z,15.60
2017-09-03T20:17:19.635Z,15.50
2017-09-03T20:19:48.103Z,15.50
2017-09-03T20:22:15.668Z,15.50
2017-09-03T20:24:43.294Z,15.50
2017-09-03T20:27:11.123Z,15.60
2017-09-03T20:29:38.734Z,15.60
2017-09-03T20:32:06.365Z,15.60
2017-09-03T20:34:33.933Z,15.70
2017-09-03T20:37:01.535Z,15.80
2017-09-03T20:39:29.150Z,15.80
2017-09-03T20:41:56.722Z,15.80
2017-09-03T20:44:25.065Z,15.90
2017-09-03T20:46:52.754Z,15.90
2017-09-03T20:49:20.336Z,15.90
2017-09-03T20:51:47.992Z,15.90
2017-09-03T20:54:15.545Z,15.90
2017-09-03T20:56:43.912Z,15.60
2017-09-03T20:59:11.571Z,15.60
2017-09-03T21:01:39.121Z,15.50
2017-09-03T21:04:06.694Z,15.40
2017-09-03T21:06:35.043Z,15.20
2017-09-03T21:09:02.602Z,15.20
2017-09-03T21:11:30.183Z,15.10
2017-09-03T21:13:57.784Z,15.20
2017-09-03T21:16:25.380Z,15.10
2017-09-03T21:18:52.981Z,15.00
2017-09-03T21:21:20.583Z,14.80
2017-09-03T21:23:48.145Z,14.70
2017-09-03T21:26:15.742Z,14.70
2017-09-03T21:28:43.321Z,14.60
2017-09-03T21:31:10.923Z,14.60
2017-09-03T21:33:38.515Z,14.60
2017-09-03T21:36:06.081Z,14.60
2017-09-03T21:38:33.643Z,14.60
2017-09-03T21:41:01.235Z,14.60
2017-09-03T21:43:28.785Z,14.60
2017-09-03T21:45:56.378Z,14.50
2017-09-03T21:48:23.945Z,14.40
2017-09-03T21:50:51.525Z,14.50
2017-09-03T21:53:19.089Z,14.50
2017-09-03T21:55:46.673Z,14.40
2017-09-03T21:58:14.271Z,14.30
2017-09-03T22:00:41.857Z,14.20
2017-09-03T22:03:09.410Z,14.20
2017-09-03T22:05:36.997Z,14.30
2017-09-03T22:08:04.557Z,14.20
2017-09-03T22:10:32.129Z,14.20
2017-09-03T22:12:59.705Z,14.20
2017-09-03T22:15:27.282Z,14.10
2017-09-03T22:17:54.860Z,14.00
2017-09-03T22:20:22.409Z,14.00
2017-09-03T22:22:49.987Z,14.00
2017-09-03T22:25:17.583Z,14.00
2017-09-03T22:27:45.148Z,13.90
2017-09-03T22:30:12.714Z,13.80
2017-09-03T22:32:40.277Z,13.70
2017-09-03T22:35:07.845Z,13.70
2017-09-03T22:37:35.459Z,13.70
2017-09-03T22:40:03.010Z,13.70
2017-09-03T22:42:30.583Z,13.70
2017-09-03T22:44:58.310Z,13.60
2017-09-03T22:47:25.885Z,13.50
2017-09-03T22:49:53.446Z,13.50
2017-09-03T22:52:21.055Z,13.40
2017-09-03T22:54:48.630Z,13.50
2017-09-03T22:57:16.178Z,13.40
2017-09-03T22:59:43.797Z,13.50
2017-09-03T23:02:12.243Z,13.50
2017-09-03T23:04:39.813Z,13.50
2017-09-03T23:07:07.403Z,13.50
2017-09-03T23:09:35.758Z,13.40
2017-09-03T23:12:03.356Z,13.40
2017-09-03T23:14:30.905Z,13.40
2017-09-03T23:16:58.474Z,13.40
2017-09-03T23:19:26.056Z,13.40
2017-09-03T23:21:53.618Z,13.40
2017-09-03T23:24:21.345Z,13.40
2017-09-03T23:26:49.681Z,13.30
2017-09-03T23:29:17.281Z,13.30
2017-09-03T23:31:44.852Z,13.30
2017-09-03T23:34:13.194Z,13.20
2017-09-03T23:36:40.818Z,13.20
2017-09-03T23:39:08.381Z,13.20
2017-09-03T23:41:35.981Z,13.20
2017-09-03T23:44:03.550Z,13.30
2017-09-03T23:46:31.098Z,13.30
2017-09-03T23:48:58.690Z,13.30
2017-09-03T23:51:27.021Z,13.20
2017-09-03T23:53:54.616Z,13.20
2017-09-03T23:56:22.951Z,13.30
2017-09-03T23:58:50.510Z,13.20
